Time;durP1;ratioP1;P1;durP2;ratioP2;P2;SDS_P1;SDS_P2;PMS_P1;PMS_P2;Temp;Humidity;BMP_temperature;BMP_pressure;BME280_temperature;BME280_humidity;BME280_pressure;Samples;Min_cycle;Max_cycle;Signal;HPM_P1;HPM_P2
2021/08/08 00:01:39;;;;;;;92.55;70.40;;;;;;;;;;5220369;27;20462;-86
2021/08/08 00:04:09;;;;;;;95.68;76.15;;;;;;;;;;5222962;27;20125;-85
2021/08/08 00:06:42;;;;;;;100.68;77.43;;;;;;;;;;5221848;27;20337;-86
2021/08/08 00:09:12;;;;;;;74.57;67.47;;;;;;;;;;5221963;27;20053;-86
2021/08/08 00:11:42;;;;;;;75.00;67.37;;;;;;;;;;5217093;27;20393;-85
2021/08/08 00:14:11;;;;;;;73.18;65.90;;;;;;;;;;5218975;27;20049;-86
2021/08/08 00:16:39;;;;;;;72.12;64.95;;;;;;;;;;5221083;27;20485;-85
2021/08/08 00:19:08;;;;;;;68.78;59.63;;;;;;;;;;5217671;27;20044;-86
2021/08/08 00:21:37;;;;;;;55.47;50.10;;;;;;;;;;5214449;27;20388;-85
2021/08/08 00:24:05;;;;;;;70.22;54.40;;;;;;;;;;5218984;27;20034;-86
2021/08/08 00:26:34;;;;;;;73.72;55.65;;;;;;;;;;5187068;27;20101;-86
2021/08/08 00:29:03;;;;;;;92.10;64.03;;;;;;;;;;5201543;27;20080;-86
2021/08/08 00:31:31;;;;;;;86.97;63.40;;;;;;;;;;5218648;27;20360;-85
2021/08/08 00:34:06;;;;;;;88.28;61.17;;;;;;;;;;5218824;27;20039;-86
2021/08/08 00:36:35;;;;;;;82.53;64.07;;;;;;;;;;5218485;27;20042;-86
2021/08/08 00:39:06;;;;;;;84.18;63.42;;;;;;;;;;5221059;27;20037;-86
2021/08/08 00:41:36;;;;;;;77.75;60.42;;;;;;;;;;5221679;27;20412;-85
2021/08/08 00:44:05;;;;;;;73.78;65.68;;;;;;;;;;5201512;27;20022;-86
2021/08/08 00:46:33;;;;;;;63.00;57.22;;;;;;;;;;5220620;27;20022;-85
2021/08/08 00:49:03;;;;;;;62.78;57.03;;;;;;;;;;5222516;27;20424;-85
2021/08/08 00:51:33;;;;;;;62.97;56.88;;;;;;;;;;5221361;27;20337;-85
2021/08/08 00:54:03;;;;;;;59.50;54.03;;;;;;;;;;5221202;27;20049;-85
2021/08/08 00:56:33;;;;;;;59.80;53.92;;;;;;;;;;5220970;27;20432;-86
2021/08/08 00:59:01;;;;;;;77.60;60.80;;;;;;;;;;5219382;27;20030;-85
2021/08/08 01:01:33;;;;;;;79.93;60.80;;;;;;;;;;5221090;27;20102;-86
2021/08/08 01:04:04;;;;;;;76.45;56.30;;;;;;;;;;5225022;27;20397;-86
2021/08/08 01:06:33;;;;;;;77.85;60.53;;;;;;;;;;5205138;27;20054;-86
2021/08/08 01:09:05;;;;;;;74.55;62.38;;;;;;;;;;5204417;27;20373;-85
2021/08/08 01:11:36;;;;;;;78.55;63.72;;;;;;;;;;5222606;27;20034;-85
2021/08/08 01:14:05;;;;;;;82.97;62.58;;;;;;;;;;5224004;27;20401;-85
2021/08/08 01:16:36;;;;;;;80.40;64.93;;;;;;;;;;5222007;27;20042;-86
2021/08/08 01:19:06;;;;;;;84.45;66.07;;;;;;;;;;5224216;27;20018;-85
2021/08/08 01:21:35;;;;;;;83.18;61.50;;;;;;;;;;5221811;27;20029;-86
2021/08/08 01:24:04;;;;;;;60.33;54.53;;;;;;;;;;5203892;27;20033;-85
2021/08/08 01:26:33;;;;;;;60.10;54.08;;;;;;;;;;5225094;27;20111;-85
2021/08/08 01:29:03;;;;;;;64.50;57.55;;;;;;;;;;5224380;27;20413;-86
2021/08/08 01:31:32;;;;;;;64.18;57.33;;;;;;;;;;5222776;27;20069;-85
2021/08/08 01:34:03;;;;;;;62.33;56.08;;;;;;;;;;5218867;27;20018;-85
2021/08/08 01:36:32;;;;;;;85.07;63.97;;;;;;;;;;5224425;27;20039;-85
2021/08/08 01:39:04;;;;;;;92.55;77.53;;;;;;;;;;5201189;27;20018;-85
2021/08/08 01:41:42;;;;;;;94.28;70.37;;;;;;;;;;5202780;27;20382;-85
2021/08/08 01:44:12;;;;;;;87.50;65.35;;;;;;;;;;5224926;27;20366;-85
2021/08/08 01:46:41;;;;;;;92.07;68.78;;;;;;;;;;5224016;27;20596;-85
2021/08/08 01:49:11;;;;;;;86.95;68.00;;;;;;;;;;5205322;27;20068;-86
2021/08/08 01:51:40;;;;;;;85.03;67.10;;;;;;;;;;5206966;27;20032;-85
2021/08/08 01:54:09;;;;;;;109.55;77.40;;;;;;;;;;5225687;27;20602;-86
2021/08/08 01:56:40;;;;;;;98.65;70.60;;;;;;;;;;5207583;27;20023;-85
2021/08/08 01:59:08;;;;;;;98.43;76.35;;;;;;;;;;5226374;27;20024;-85
2021/08/08 02:01:38;;;;;;;72.65;65.60;;;;;;;;;;5225283;27;20480;-85
2021/08/08 02:04:25;;;;;;;73.55;66.45;;;;;;;;;;5221872;27;20026;-85
2021/08/08 02:06:54;;;;;;;80.62;73.22;;;;;;;;;;5228049;27;20436;-85
2021/08/08 02:09:23;;;;;;;79.40;71.70;;;;;;;;;;5228729;27;20038;-85
2021/08/08 02:11:51;;;;;;;83.82;75.43;;;;;;;;;;5223970;27;20734;-85
2021/08/08 02:14:20;;;;;;;105.78;77.32;;;;;;;;;;5223507;27;20064;-85
2021/08/08 02:16:50;;;;;;;97.90;77.12;;;;;;;;;;5224760;27;20426;-85
2021/08/08 02:19:18;;;;;;;99.85;78.03;;;;;;;;;;5229581;27;20030;-84
2021/08/08 02:21:48;;;;;;;93.97;68.05;;;;;;;;;;5226516;27;20002;-85
2021/08/08 02:24:18;;;;;;;93.47;67.87;;;;;;;;;;5222509;27;20034;-85
2021/08/08 02:26:48;;;;;;;100.10;68.72;;;;;;;;;;5223190;27;20390;-85
2021/08/08 02:29:16;;;;;;;99.03;72.00;;;;;;;;;;5225404;27;20323;-85
2021/08/08 02:31:45;;;;;;;100.12;74.55;;;;;;;;;;5226623;27;20056;-85
2021/08/08 02:34:15;;;;;;;100.95;72.75;;;;;;;;;;5229039;27;20014;-85
2021/08/08 02:36:44;;;;;;;99.28;70.25;;;;;;;;;;5225925;27;20064;-85
2021/08/08 02:39:13;;;;;;;77.85;69.70;;;;;;;;;;5222402;27;20038;-85
2021/08/08 02:41:41;;;;;;;83.40;75.78;;;;;;;;;;5226140;27;20036;-85
2021/08/08 02:44:10;;;;;;;85.90;77.32;;;;;;;;;;5224175;27;20056;-85
2021/08/08 02:46:39;;;;;;;86.93;78.45;;;;;;;;;;5226250;27;20072;-85
2021/08/08 02:49:08;;;;;;;87.03;78.80;;;;;;;;;;5227292;27;20037;-85
2021/08/08 02:51:36;;;;;;;83.25;75.25;;;;;;;;;;5224227;27;20036;-85
2021/08/08 02:54:05;;;;;;;91.15;71.15;;;;;;;;;;5224085;27;20029;-85
2021/08/08 02:56:35;;;;;;;91.75;71.53;;;;;;;;;;5229752;27;20328;-85
2021/08/08 02:59:03;;;;;;;98.47;77.15;;;;;;;;;;5226965;27;20025;-84
2021/08/08 03:01:32;;;;;;;99.78;80.97;;;;;;;;;;5225982;27;20026;-84
2021/08/08 03:04:01;;;;;;;96.70;80.03;;;;;;;;;;5224942;27;20039;-85
2021/08/08 03:06:30;;;;;;;103.22;80.15;;;;;;;;;;5223329;27;20089;-85
2021/08/08 03:08:58;;;;;;;103.50;80.35;;;;;;;;;;5203367;27;20022;-85
2021/08/08 08:08:11;;;;;;;8.82;1.67;;;;;;;;;;5226079;27;20087;-85
2021/08/08 08:10:58;;;;;;;10.05;1.65;;;;;;;;;;5266882;27;20086;-84
2021/08/08 08:13:27;;;;;;;8.55;1.35;;;;;;;;;;5247413;27;20021;-85
2021/08/08 08:15:57;;;;;;;5.90;1.70;;;;;;;;;;5264063;27;20071;-85
2021/08/08 08:18:26;;;;;;;7.87;1.70;;;;;;;;;;5267483;27;20017;-84
2021/08/08 08:20:54;;;;;;;5.95;1.85;;;;;;;;;;5246373;27;20056;-84
2021/08/08 08:23:23;;;;;;;9.43;1.83;;;;;;;;;;5265010;27;20044;-85
2021/08/08 08:25:51;;;;;;;6.87;1.45;;;;;;;;;;5259376;27;20018;-85
2021/08/08 08:28:20;;;;;;;6.97;1.80;;;;;;;;;;5263726;27;20033;-85
2021/08/08 08:30:48;;;;;;;6.05;1.52;;;;;;;;;;5247628;27;20068;-84
2021/08/08 08:33:17;;;;;;;5.85;1.37;;;;;;;;;;5263118;27;20104;-85
2021/08/08 08:35:45;;;;;;;8.48;2.05;;;;;;;;;;5261069;27;20423;-84
2021/08/08 08:38:16;;;;;;;8.13;1.50;;;;;;;;;;5266538;27;20109;-84
2021/08/08 08:40:47;;;;;;;9.63;1.70;;;;;;;;;;5267603;27;20025;-84
2021/08/08 08:43:16;;;;;;;6.75;1.83;;;;;;;;;;5246995;27;20124;-84
2021/08/08 08:45:45;;;;;;;8.18;1.83;;;;;;;;;;5266501;27;20467;-85
2021/08/08 08:48:17;;;;;;;7.18;1.70;;;;;;;;;;5267095;27;20077;-85
2021/08/08 08:50:53;;;;;;;7.25;2.10;;;;;;;;;;5265978;27;20088;-85
2021/08/08 08:53:22;;;;;;;6.85;1.42;;;;;;;;;;5262596;27;20257;-85
2021/08/08 08:55:51;;;;;;;10.73;2.15;;;;;;;;;;5264763;27;20271;-86
2021/08/08 08:58:21;;;;;;;5.93;1.73;;;;;;;;;;5264016;27;20015;-85
2021/08/08 09:00:50;;;;;;;5.47;1.65;;;;;;;;;;5265569;27;20407;-85
2021/08/08 09:03:19;;;;;;;8.13;1.65;;;;;;;;;;5265668;27;20403;-85
2021/08/08 09:05:48;;;;;;;7.78;1.70;;;;;;;;;;5260418;27;20028;-85
2021/08/08 09:08:17;;;;;;;7.57;1.70;;;;;;;;;;5265450;27;20071;-85
2021/08/08 09:10:46;;;;;;;8.65;1.95;;;;;;;;;;5261958;27;20469;-84
2021/08/08 09:13:15;;;;;;;14.00;2.33;;;;;;;;;;5262249;27;20105;-84
2021/08/08 09:15:44;;;;;;;9.40;1.87;;;;;;;;;;5264471;27;20065;-83
2021/08/08 09:18:13;;;;;;;10.35;2.28;;;;;;;;;;5264473;27;20106;-84
2021/08/08 09:20:44;;;;;;;7.22;1.70;;;;;;;;;;5262856;27;20018;-85
2021/08/08 09:23:14;;;;;;;9.38;2.03;;;;;;;;;;5264826;27;20063;-84
2021/08/08 09:26:08;;;;;;;8.75;2.10;;;;;;;;;;5261835;27;20345;-85
2021/08/08 09:28:38;;;;;;;8.68;1.70;;;;;;;;;;5243224;27;20360;-85
2021/08/08 09:31:06;;;;;;;7.62;1.50;;;;;;;;;;5257779;27;20055;-86
2021/08/08 09:33:42;;;;;;;6.25;1.62;;;;;;;;;;5263863;27;20037;-84
2021/08/08 09:36:11;;;;;;;5.20;1.45;;;;;;;;;;5267143;27;20428;-85
2021/08/08 09:38:46;;;;;;;7.87;1.98;;;;;;;;;;5264840;27;20103;-85
2021/08/08 09:41:24;;;;;;;7.47;1.40;;;;;;;;;;5264329;27;20068;-85
2021/08/08 09:43:52;;;;;;;8.82;1.80;;;;;;;;;;5263895;27;20017;-85
2021/08/08 09:46:21;;;;;;;5.43;1.58;;;;;;;;;;5244728;27;20624;-84
2021/08/08 09:48:50;;;;;;;7.20;2.08;;;;;;;;;;5264053;27;20286;-85
2021/08/08 09:51:18;;;;;;;9.82;1.62;;;;;;;;;;5263962;27;20018;-84
2021/08/08 09:53:55;;;;;;;11.18;2.08;;;;;;;;;;5264236;27;20043;-85
2021/08/08 09:56:24;;;;;;;9.90;2.12;;;;;;;;;;5265338;27;20038;-84
2021/08/08 09:58:53;;;;;;;7.43;1.90;;;;;;;;;;5264503;27;20521;-85
2021/08/08 10:01:22;;;;;;;10.77;2.00;;;;;;;;;;5264671;27;20444;-85
2021/08/08 10:03:51;;;;;;;7.15;2.22;;;;;;;;;;5264688;27;20033;-85
2021/08/08 10:06:19;;;;;;;7.75;1.98;;;;;;;;;;5265655;27;20028;-85
2021/08/08 10:08:48;;;;;;;8.05;1.83;;;;;;;;;;5263925;27;20436;-85
2021/08/08 10:11:19;;;;;;;8.18;1.92;;;;;;;;;;5264508;27;20441;-85
2021/08/08 10:13:52;;;;;;;6.43;1.67;;;;;;;;;;5263571;27;20052;-85
2021/08/08 10:16:21;;;;;;;;;;;;;;;;;;5262088;27;20069;-85
2021/08/08 10:18:54;;;;;;;5.57;1.80;;;;;;;;;;5261558;27;20673;-85
2021/08/08 10:21:23;;;;;;;6.35;1.55;;;;;;;;;;5263142;27;20062;-84
2021/08/08 10:23:53;;;;;;;7.87;1.98;;;;;;;;;;5259909;27;20231;-84
2021/08/08 10:26:22;;;;;;;7.72;1.90;;;;;;;;;;5265820;27;20025;-85
2021/08/08 10:28:52;;;;;;;8.07;1.85;;;;;;;;;;5259463;27;20044;-85
2021/08/08 10:31:25;;;;;;;7.85;2.03;;;;;;;;;;5242195;27;20033;-84
2021/08/08 10:33:53;;;;;;;;;;;;;;;;;;5260477;27;20030;-86
2021/08/08 10:36:32;;;;;;;8.63;1.80;;;;;;;;;;5254241;27;19987;-85
2021/08/08 10:39:12;;;;;;;5.82;1.77;;;;;;;;;;5257792;27;20415;-85
2021/08/08 10:41:41;;;;;;;5.40;1.73;;;;;;;;;;5260313;27;20088;-85
2021/08/08 10:44:13;;;;;;;7.53;2.00;;;;;;;;;;5253489;27;20537;-86
2021/08/08 10:46:51;;;;;;;7.30;2.05;;;;;;;;;;5249199;27;20063;-86
2021/08/08 10:49:30;;;;;;;9.43;2.10;;;;;;;;;;5235772;27;20486;-85
2021/08/08 10:52:03;;;;;;;7.55;1.75;;;;;;;;;;5237579;27;20026;-86
2021/08/08 10:54:41;;;;;;;7.57;1.85;;;;;;;;;;5261708;27;20574;-85
2021/08/08 10:57:10;;;;;;;10.30;2.10;;;;;;;;;;5266008;27;20504;-84
2021/08/08 10:59:47;;;;;;;10.27;1.98;;;;;;;;;;5258086;27;21016;-85
2021/08/08 11:02:16;;;;;;;7.95;1.90;;;;;;;;;;5259675;27;20340;-85
2021/08/08 11:04:45;;;;;;;7.43;1.95;;;;;;;;;;5265158;27;20147;-85
2021/08/08 11:07:14;;;;;;;12.00;1.90;;;;;;;;;;5262191;27;20352;-84
2021/08/08 11:09:44;;;;;;;7.25;2.08;;;;;;;;;;5266085;27;20368;-84
2021/08/08 11:12:16;;;;;;;6.37;1.48;;;;;;;;;;5248037;27;20096;-84
2021/08/08 11:14:48;;;;;;;8.80;2.10;;;;;;;;;;5263682;27;20097;-86
2021/08/08 11:17:16;;;;;;;8.73;1.67;;;;;;;;;;5270249;27;20030;-84
2021/08/08 11:19:45;;;;;;;5.60;1.70;;;;;;;;;;5248910;27;20037;-85
2021/08/08 11:22:13;;;;;;;12.98;2.10;;;;;;;;;;5263045;27;20028;-85
2021/08/08 11:24:43;;;;;;;4.85;1.42;;;;;;;;;;5262543;27;20443;-85
2021/08/08 11:27:12;;;;;;;7.18;1.80;;;;;;;;;;5264158;27;20026;-85
2021/08/08 11:29:40;;;;;;;10.35;1.98;;;;;;;;;;5262950;27;20693;-84
2021/08/08 11:32:09;;;;;;;6.40;1.67;;;;;;;;;;5238539;27;20135;-84
2021/08/08 11:34:38;;;;;;;5.05;1.60;;;;;;;;;;5240201;27;20234;-84
2021/08/08 11:37:06;;;;;;;7.25;1.65;;;;;;;;;;5264847;27;20892;-85
2021/08/08 11:39:36;;;;;;;7.78;1.62;;;;;;;;;;5223662;27;20070;-85
2021/08/08 11:42:06;;;;;;;6.47;1.42;;;;;;;;;;5238868;27;20055;-86
2021/08/08 11:44:42;;;;;;;4.75;1.37;;;;;;;;;;5255158;27;20036;-85
2021/08/08 11:47:10;;;;;;;6.55;1.95;;;;;;;;;;5263450;27;20058;-84
2021/08/08 11:49:43;;;;;;;8.05;1.77;;;;;;;;;;5262442;27;20430;-84
2021/08/08 11:52:14;;;;;;;8.50;1.60;;;;;;;;;;5264730;27;20009;-84
2021/08/08 11:54:43;;;;;;;8.95;1.87;;;;;;;;;;5262666;27;20021;-84
2021/08/08 11:57:11;;;;;;;8.63;1.85;;;;;;;;;;5248992;27;20033;-84
2021/08/08 11:59:40;;;;;;;6.15;1.35;;;;;;;;;;5240326;27;20049;-85
2021/08/08 12:02:09;;;;;;;7.82;1.37;;;;;;;;;;5256012;27;20021;-85
2021/08/08 12:04:39;;;;;;;7.00;1.90;;;;;;;;;;5254267;27;20026;-86
2021/08/08 12:07:09;;;;;;;7.22;1.95;;;;;;;;;;5259144;27;20018;-85
2021/08/08 12:09:45;;;;;;;7.62;1.40;;;;;;;;;;5238497;27;20061;-85
2021/08/08 12:12:14;;;;;;;4.28;1.48;;;;;;;;;;5259921;27;20040;-84
2021/08/08 12:14:44;;;;;;;5.72;1.67;;;;;;;;;;5253579;27;20052;-84
2021/08/08 12:17:14;;;;;;;6.10;1.40;;;;;;;;;;5259101;27;20073;-85
2021/08/08 12:19:44;;;;;;;5.00;1.75;;;;;;;;;;5232469;27;20435;-85
2021/08/08 12:22:13;;;;;;;8.73;1.90;;;;;;;;;;5267102;27;20080;-85
2021/08/08 12:24:49;;;;;;;11.35;1.67;;;;;;;;;;5265244;27;20022;-85
2021/08/08 12:27:29;;;;;;;5.18;1.45;;;;;;;;;;5267695;27;20593;-84
2021/08/08 12:29:58;;;;;;;6.37;1.50;;;;;;;;;;5264756;27;20105;-84
2021/08/08 12:32:35;;;;;;;6.72;1.77;;;;;;;;;;5269355;27;20056;-84
2021/08/08 12:35:14;;;;;;;4.40;1.40;;;;;;;;;;5270191;27;20006;-84
2021/08/08 12:37:44;;;;;;;10.18;1.90;;;;;;;;;;5251234;27;20030;-85
2021/08/08 12:40:17;;;;;;;4.97;1.50;;;;;;;;;;5267692;27;20045;-84
2021/08/08 12:42:47;;;;;;;5.32;1.77;;;;;;;;;;5268855;27;20352;-84
2021/08/08 12:45:16;;;;;;;5.87;1.33;;;;;;;;;;5264104;27;20048;-85
2021/08/08 12:47:47;;;;;;;8.13;1.73;;;;;;;;;;5243976;27;20728;-85
2021/08/08 12:50:20;;;;;;;6.55;1.80;;;;;;;;;;5249114;27;20005;-85
2021/08/08 12:52:50;;;;;;;6.10;1.25;;;;;;;;;;5268103;27;20360;-85
2021/08/08 12:55:19;;;;;;;5.87;1.45;;;;;;;;;;5266556;27;20777;-85
2021/08/08 12:57:49;;;;;;;8.68;1.45;;;;;;;;;;5260492;27;20118;-85
2021/08/08 13:00:18;;;;;;;8.93;1.73;;;;;;;;;;5264864;27;20049;-84
2021/08/08 13:02:48;;;;;;;6.45;1.40;;;;;;;;;;5245768;27;20014;-85
2021/08/08 13:05:20;;;;;;;6.75;1.25;;;;;;;;;;5246163;27;20076;-84
2021/08/08 13:07:48;;;;;;;8.90;1.87;;;;;;;;;;5261010;27;20083;-85
2021/08/08 13:10:17;;;;;;;5.53;1.55;;;;;;;;;;5266521;27;20021;-84
2021/08/08 13:12:48;;;;;;;4.28;1.10;;;;;;;;;;5271807;27;20033;-85
2021/08/08 13:15:18;;;;;;;8.00;1.77;;;;;;;;;;5263473;27;20048;-84
2021/08/08 13:17:47;;;;;;;6.95;1.80;;;;;;;;;;5261599;27;20078;-85
2021/08/08 13:20:17;;;;;;;6.78;1.87;;;;;;;;;;5265558;27;20006;-86
2021/08/08 13:22:45;;;;;;;7.18;1.30;;;;;;;;;;5268068;27;20017;-85
2021/08/08 13:25:15;;;;;;;6.70;1.55;;;;;;;;;;5265206;27;20053;-84
2021/08/08 13:27:43;;;;;;;6.53;1.62;;;;;;;;;;5244370;27;20403;-84
2021/08/08 13:30:12;;;;;;;10.10;1.87;;;;;;;;;;5262811;27;20066;-85
2021/08/08 13:32:40;;;;;;;13.75;2.20;;;;;;;;;;5263586;27;20052;-84
2021/08/08 13:35:09;;;;;;;7.55;1.60;;;;;;;;;;5264928;27;20217;-84
2021/08/08 13:37:38;;;;;;;9.27;1.48;;;;;;;;;;5228622;27;20060;-83
2021/08/08 13:40:08;;;;;;;9.52;1.48;;;;;;;;;;5266531;27;20560;-84
2021/08/08 13:42:37;;;;;;;5.82;1.40;;;;;;;;;;5266005;27;20055;-85
2021/08/08 13:45:05;;;;;;;11.43;1.60;;;;;;;;;;5244732;27;20446;-84
2021/08/08 13:47:34;;;;;;;7.97;1.40;;;;;;;;;;5267945;27;20036;-84
2021/08/08 13:50:03;;;;;;;10.35;1.87;;;;;;;;;;5266906;27;20005;-85
2021/08/08 13:52:32;;;;;;;11.43;2.08;;;;;;;;;;5267995;27;20040;-85
2021/08/08 13:55:01;;;;;;;7.78;1.27;;;;;;;;;;5244698;27;20116;-84
2021/08/08 13:57:29;;;;;;;8.40;1.30;;;;;;;;;;5244641;27;20041;-84
2021/08/08 13:59:58;;;;;;;6.65;1.60;;;;;;;;;;5265804;27;20021;-84
2021/08/08 14:02:26;;;;;;;10.00;1.50;;;;;;;;;;5229387;27;20042;-83
2021/08/08 14:04:56;;;;;;;7.62;1.48;;;;;;;;;;5264943;27;20040;-86
2021/08/08 14:07:24;;;;;;;8.43;1.73;;;;;;;;;;5265416;27;20522;-84
2021/08/08 14:09:53;;;;;;;9.13;1.80;;;;;;;;;;5267415;27;20025;-84
2021/08/08 14:12:22;;;;;;;6.00;1.60;;;;;;;;;;5266758;27;20080;-85
2021/08/08 14:14:51;;;;;;;8.45;1.50;;;;;;;;;;5249736;27;20048;-85
2021/08/08 14:17:19;;;;;;;15.27;2.05;;;;;;;;;;5245246;27;20052;-84
2021/08/08 14:19:48;;;;;;;9.60;1.45;;;;;;;;;;5264108;27;20293;-85
2021/08/08 14:22:16;;;;;;;9.50;1.85;;;;;;;;;;5265707;27;20344;-85
2021/08/08 14:24:46;;;;;;;5.85;1.33;;;;;;;;;;5263634;27;20026;-84
2021/08/08 14:27:14;;;;;;;7.72;1.70;;;;;;;;;;5247965;27;20030;-84
2021/08/08 14:29:43;;;;;;;8.68;1.65;;;;;;;;;;5268013;27;20013;-84
2021/08/08 14:32:11;;;;;;;9.73;1.60;;;;;;;;;;5263744;27;20046;-84
2021/08/08 14:34:40;;;;;;;9.15;1.30;;;;;;;;;;5242621;27;20509;-85
2021/08/08 14:37:08;;;;;;;5.45;1.48;;;;;;;;;;5243314;27;20022;-84
2021/08/08 14:39:37;;;;;;;8.85;1.70;;;;;;;;;;5233358;27;20075;-84
2021/08/08 14:42:10;;;;;;;7.28;1.85;;;;;;;;;;5266877;27;20084;-84
2021/08/08 14:44:39;;;;;;;5.87;1.42;;;;;;;;;;5259061;27;20022;-84
2021/08/08 14:47:08;;;;;;;7.90;2.20;;;;;;;;;;5264438;27;20124;-84
2021/08/08 14:49:36;;;;;;;6.45;1.70;;;;;;;;;;5265028;27;20017;-85
2021/08/08 14:52:05;;;;;;;8.23;1.83;;;;;;;;;;5265672;27;20041;-84
2021/08/08 14:54:34;;;;;;;9.45;1.62;;;;;;;;;;5264951;27;20030;-84
2021/08/08 14:57:02;;;;;;;8.23;1.50;;;;;;;;;;5243174;27;20358;-84
2021/08/08 14:59:30;;;;;;;8.80;1.80;;;;;;;;;;5260542;27;20295;-85
2021/08/08 15:01:59;;;;;;;11.18;2.08;;;;;;;;;;5265202;27;20030;-83
2021/08/08 15:04:28;;;;;;;9.32;1.73;;;;;;;;;;5264804;27;20097;-85
2021/08/08 15:06:57;;;;;;;13.32;2.00;;;;;;;;;;5248122;27;20384;-84
2021/08/08 15:09:25;;;;;;;7.12;1.58;;;;;;;;;;5267089;27;20084;-84
2021/08/08 15:11:54;;;;;;;6.53;1.33;;;;;;;;;;5248837;27;20087;-84
2021/08/08 15:14:22;;;;;;;11.57;2.08;;;;;;;;;;5262460;27;20436;-84
2021/08/08 15:16:51;;;;;;;9.60;2.47;;;;;;;;;;5264766;27;20549;-84
2021/08/08 15:19:19;;;;;;;8.02;3.12;;;;;;;;;;5263927;27;20048;-84
2021/08/08 15:21:47;;;;;;;8.60;1.70;;;;;;;;;;5264407;27;20025;-85
2021/08/08 15:24:16;;;;;;;11.38;1.58;;;;;;;;;;5263627;27;20491;-85
2021/08/08 15:26:45;;;;;;;7.97;1.50;;;;;;;;;;5265059;27;20029;-85
2021/08/08 15:29:13;;;;;;;8.55;1.75;;;;;;;;;;5265384;27;20018;-83
2021/08/08 15:31:42;;;;;;;12.13;1.70;;;;;;;;;;5263943;27;20475;-85
2021/08/08 15:34:10;;;;;;;14.43;2.05;;;;;;;;;;5266858;27;20049;-85
2021/08/08 15:36:39;;;;;;;5.87;1.37;;;;;;;;;;5261350;27;20023;-85
2021/08/08 15:39:07;;;;;;;11.18;2.00;;;;;;;;;;5261390;27;20032;-84
2021/08/08 15:41:40;;;;;;;9.70;1.45;;;;;;;;;;5265913;27;20037;-85
2021/08/08 15:44:09;;;;;;;9.35;2.70;;;;;;;;;;5226955;27;20025;-85
2021/08/08 15:46:37;;;;;;;9.20;1.75;;;;;;;;;;5234953;27;20040;-85
2021/08/08 15:49:06;;;;;;;11.57;1.95;;;;;;;;;;5263784;27;20227;-85
2021/08/08 15:51:34;;;;;;;11.60;2.33;;;;;;;;;;5268478;27;20093;-85
2021/08/08 15:54:06;;;;;;;9.07;1.67;;;;;;;;;;5264445;27;20029;-85
2021/08/08 15:56:35;;;;;;;15.65;2.42;;;;;;;;;;5261739;27;20044;-85
2021/08/08 15:59:03;;;;;;;9.88;1.67;;;;;;;;;;5264661;27;20404;-85
2021/08/08 16:01:32;;;;;;;12.25;2.10;;;;;;;;;;5269057;27;20621;-84
2021/08/08 16:04:01;;;;;;;10.55;2.00;;;;;;;;;;5265014;27;20407;-84
2021/08/08 16:06:30;;;;;;;9.73;2.37;;;;;;;;;;5268311;27;20909;-85
2021/08/08 16:09:00;;;;;;;10.98;1.70;;;;;;;;;;5267858;27;20422;-84
2021/08/08 16:11:29;;;;;;;9.98;2.03;;;;;;;;;;5270234;27;20085;-84
2021/08/08 16:13:57;;;;;;;11.18;2.35;;;;;;;;;;5268993;27;20049;-85
2021/08/08 16:16:26;;;;;;;13.98;2.62;;;;;;;;;;5270695;27;20048;-85
2021/08/08 16:18:54;;;;;;;12.57;2.60;;;;;;;;;;5269767;27;20052;-85
2021/08/08 16:21:26;;;;;;;11.63;2.78;;;;;;;;;;5253598;27;20043;-84
2021/08/08 16:23:54;;;;;;;9.45;2.30;;;;;;;;;;5269655;27;20036;-85
2021/08/08 16:26:23;;;;;;;19.05;10.52;;;;;;;;;;5268991;27;20347;-84
2021/08/08 16:28:51;;;;;;;15.82;10.23;;;;;;;;;;5272590;27;20017;-84
2021/08/08 16:31:20;;;;;;;12.65;8.48;;;;;;;;;;5268262;27;20038;-85
2021/08/08 16:33:48;;;;;;;16.52;11.35;;;;;;;;;;5267467;27;20032;-84
2021/08/08 16:36:17;;;;;;;16.40;14.80;;;;;;;;;;5246713;27;20014;-85
2021/08/08 16:38:45;;;;;;;15.05;13.18;;;;;;;;;;5267105;27;20032;-84
2021/08/08 16:41:17;;;;;;;20.67;14.98;;;;;;;;;;5269164;27;20026;-85
2021/08/08 16:43:46;;;;;;;18.42;16.75;;;;;;;;;;5264346;27;20466;-85
2021/08/08 16:46:15;;;;;;;28.08;25.33;;;;;;;;;;5248065;27;20021;-84
2021/08/08 16:48:43;;;;;;;22.13;19.50;;;;;;;;;;5264142;27;20051;-85
2021/08/08 16:51:12;;;;;;;47.17;43.60;;;;;;;;;;5262593;27;20418;-84
2021/08/08 16:53:40;;;;;;;30.62;27.62;;;;;;;;;;5267364;27;20021;-84
2021/08/08 16:56:09;;;;;;;19.52;17.50;;;;;;;;;;5265451;27;20039;-85
2021/08/08 16:58:37;;;;;;;12.43;4.57;;;;;;;;;;5264266;27;20309;-84
2021/08/08 17:01:05;;;;;;;14.98;9.05;;;;;;;;;;5268314;27;20014;-85
2021/08/08 17:03:35;;;;;;;13.73;10.23;;;;;;;;;;5246770;27;20306;-85
2021/08/08 17:06:04;;;;;;;12.00;4.03;;;;;;;;;;5267416;27;20344;-84
2021/08/08 17:08:32;;;;;;;11.35;3.62;;;;;;;;;;5263024;27;20045;-84
2021/08/08 17:11:00;;;;;;;10.07;5.07;;;;;;;;;;5265044;27;20017;-84
2021/08/08 17:13:29;;;;;;;13.95;5.15;;;;;;;;;;5266482;27;20528;-84
2021/08/08 17:15:57;;;;;;;15.65;11.52;;;;;;;;;;5267814;27;20343;-84
2021/08/08 17:18:26;;;;;;;9.85;1.73;;;;;;;;;;5248552;27;20471;-84
2021/08/08 17:20:55;;;;;;;13.77;3.60;;;;;;;;;;5266810;27;20153;-85
2021/08/08 17:23:23;;;;;;;12.02;4.00;;;;;;;;;;5269766;27;20030;-84
2021/08/08 17:25:53;;;;;;;12.32;4.32;;;;;;;;;;5265805;27;20388;-84
2021/08/08 17:28:22;;;;;;;7.50;3.87;;;;;;;;;;5266242;27;20056;-85
2021/08/08 17:30:50;;;;;;;19.40;17.58;;;;;;;;;;5267828;27;20811;-85
2021/08/08 17:33:20;;;;;;;109.47;103.57;;;;;;;;;;5266475;27;20029;-84
2021/08/08 17:35:49;;;;;;;248.82;236.55;;;;;;;;;;5265677;27;20029;-84
2021/08/08 17:38:18;;;;;;;178.00;169.13;;;;;;;;;;5264911;27;20032;-84
2021/08/08 17:40:46;;;;;;;92.40;87.22;;;;;;;;;;5265714;27;20081;-84
2021/08/08 17:43:15;;;;;;;204.25;194.65;;;;;;;;;;5266881;27;20046;-84
2021/08/08 17:45:43;;;;;;;73.22;69.35;;;;;;;;;;5263997;27;20087;-84
2021/08/08 17:48:14;;;;;;;119.10;112.93;;;;;;;;;;5245162;27;20017;-83
2021/08/08 17:50:44;;;;;;;260.35;247.77;;;;;;;;;;5265830;27;20034;-85
2021/08/08 17:53:13;;;;;;;199.02;188.68;;;;;;;;;;5265421;27;20107;-84
2021/08/08 17:55:41;;;;;;;138.65;131.10;;;;;;;;;;5247400;27;20399;-84
2021/08/08 17:58:10;;;;;;;155.00;144.45;;;;;;;;;;5265836;27;20029;-84
2021/08/08 18:00:39;;;;;;;214.48;201.10;;;;;;;;;;5266283;27;20018;-83
2021/08/08 18:03:08;;;;;;;136.60;128.43;;;;;;;;;;5265175;27;20044;-84
2021/08/08 18:05:37;;;;;;;97.53;91.70;;;;;;;;;;5267024;27;20017;-85
2021/08/08 18:08:06;;;;;;;102.32;95.97;;;;;;;;;;5265946;27;20360;-84
2021/08/08 18:10:35;;;;;;;108.63;100.90;;;;;;;;;;5243443;27;20041;-85
2021/08/08 18:13:03;;;;;;;80.60;73.82;;;;;;;;;;5239381;27;20293;-84
2021/08/08 18:15:32;;;;;;;115.03;105.22;;;;;;;;;;5256935;27;20354;-84
2021/08/08 18:18:00;;;;;;;141.18;129.63;;;;;;;;;;5260046;27;20435;-84
2021/08/08 18:20:29;;;;;;;142.25;129.52;;;;;;;;;;5260164;27;20428;-85
2021/08/08 18:22:57;;;;;;;145.20;130.90;;;;;;;;;;5244933;27;20030;-84
2021/08/08 18:25:26;;;;;;;103.40;93.22;;;;;;;;;;5266918;27;20025;-84
2021/08/08 18:27:55;;;;;;;79.95;71.75;;;;;;;;;;5263996;27;20861;-84
2021/08/08 18:30:23;;;;;;;86.10;77.82;;;;;;;;;;5265921;27;20022;-85
2021/08/08 18:32:52;;;;;;;97.82;88.10;;;;;;;;;;5245719;27;20049;-84
2021/08/08 18:35:20;;;;;;;101.32;90.53;;;;;;;;;;5262898;27;20077;-84
2021/08/08 18:37:49;;;;;;;73.82;66.72;;;;;;;;;;5267476;27;20025;-85
2021/08/08 18:40:18;;;;;;;81.93;74.05;;;;;;;;;;5242252;27;20046;-84
2021/08/08 18:42:46;;;;;;;68.62;61.63;;;;;;;;;;5264064;27;20033;-84
2021/08/08 18:45:16;;;;;;;88.50;80.68;;;;;;;;;;5261244;27;20048;-84
2021/08/08 18:47:45;;;;;;;71.15;64.55;;;;;;;;;;5265756;27;20293;-84
2021/08/08 18:50:17;;;;;;;99.47;89.43;;;;;;;;;;5243996;27;20678;-84
2021/08/08 18:52:48;;;;;;;74.65;67.00;;;;;;;;;;5265623;27;20470;-84
2021/08/08 18:55:17;;;;;;;83.43;74.95;;;;;;;;;;5264758;27;20055;-83
2021/08/08 18:57:46;;;;;;;85.03;76.43;;;;;;;;;;5263383;27;20445;-84
2021/08/08 19:00:14;;;;;;;94.35;84.50;;;;;;;;;;5263580;27;20025;-84
2021/08/08 19:02:43;;;;;;;98.57;90.68;;;;;;;;;;5263978;27;20064;-84
2021/08/08 19:05:12;;;;;;;116.68;107.10;;;;;;;;;;5262571;27;20033;-84
2021/08/08 19:07:40;;;;;;;122.85;112.55;;;;;;;;;;5264406;27;20013;-84
2021/08/08 19:10:09;;;;;;;132.65;121.28;;;;;;;;;;5265971;27;20364;-84
2021/08/08 19:12:44;;;;;;;120.50;110.45;;;;;;;;;;5266655;27;20034;-84
2021/08/08 19:15:15;;;;;;;199.48;183.95;;;;;;;;;;5266321;27;20801;-85
2021/08/08 19:17:44;;;;;;;236.00;215.50;;;;;;;;;;5264840;27;20070;-84
2021/08/08 19:20:13;;;;;;;246.87;225.10;;;;;;;;;;5266258;27;20305;-84
2021/08/08 19:22:41;;;;;;;244.13;222.45;;;;;;;;;;5266239;27;20425;-83
2021/08/08 19:25:10;;;;;;;222.23;187.45;;;;;;;;;;5266066;27;20034;-84
2021/08/08 19:27:38;;;;;;;266.27;207.82;;;;;;;;;;5245772;27;20367;-84
2021/08/08 19:30:07;;;;;;;263.15;207.18;;;;;;;;;;5266673;27;20022;-84
2021/08/08 19:32:36;;;;;;;263.30;199.45;;;;;;;;;;5252379;27;20112;-84
2021/08/08 19:35:05;;;;;;;252.65;188.98;;;;;;;;;;5266564;27;20441;-84
2021/08/08 19:37:34;;;;;;;221.98;159.80;;;;;;;;;;5264105;27;20083;-84
2021/08/08 19:40:03;;;;;;;240.85;183.40;;;;;;;;;;5261547;27;20029;-84